sensor_id;sensor_type;location;lat;lon;timestamp;P1;durP1;ratioP1;P2;durP2;ratioP2
67995;SDS011;54772;53.544;49.324;2023-01-25T00:01:32;7.75;;;4.10;;
67995;SDS011;54772;53.544;49.324;2023-01-25T00:04:18;8.20;;;4.15;;
67995;SDS011;54772;53.544;49.324;2023-01-25T00:07:05;7.78;;;4.03;;
67995;SDS011;54772;53.544;49.324;2023-01-25T00:09:52;6.65;;;3.70;;
67995;SDS011;54772;53.544;49.324;2023-01-25T00:12:38;7.07;;;4.00;;
67995;SDS011;54772;53.544;49.324;2023-01-25T00:15:25;6.43;;;4.22;;
67995;SDS011;54772;53.544;49.324;2023-01-25T00:18:12;5.55;;;3.33;;
67995;SDS011;54772;53.544;49.324;2023-01-25T00:20:58;6.93;;;3.80;;
67995;SDS011;54772;53.544;49.324;2023-01-25T00:23:55;6.15;;;3.45;;
67995;SDS011;54772;53.544;49.324;2023-01-25T00:29:28;6.45;;;3.62;;
67995;SDS011;54772;53.544;49.324;2023-01-25T00:35:01;6.37;;;3.72;;
67995;SDS011;54772;53.544;49.324;2023-01-25T00:37:51;5.82;;;3.95;;
67995;SDS011;54772;53.544;49.324;2023-01-25T00:40:38;5.00;;;3.60;;
67995;SDS011;54772;53.544;49.324;2023-01-25T00:43:25;7.20;;;3.78;;
67995;SDS011;54772;53.544;49.324;2023-01-25T00:46:15;6.45;;;3.37;;
67995;SDS011;54772;53.544;49.324;2023-01-25T00:49:02;6.95;;;3.67;;
67995;SDS011;54772;53.544;49.324;2023-01-25T00:51:48;8.13;;;4.07;;
67995;SDS011;54772;53.544;49.324;2023-01-25T00:54:36;6.53;;;3.90;;
67995;SDS011;54772;53.544;49.324;2023-01-25T01:00:10;6.40;;;3.67;;
67995;SDS011;54772;53.544;49.324;2023-01-25T01:02:57;6.15;;;3.80;;
67995;SDS011;54772;53.544;49.324;2023-01-25T01:05:43;7.47;;;3.78;;
67995;SDS011;54772;53.544;49.324;2023-01-25T01:08:32;7.10;;;3.42;;
67995;SDS011;54772;53.544;49.324;2023-01-25T01:11:21;6.25;;;3.75;;
67995;SDS011;54772;53.544;49.324;2023-01-25T01:14:08;6.45;;;3.85;;
67995;SDS011;54772;53.544;49.324;2023-01-25T01:19:41;6.28;;;3.72;;
67995;SDS011;54772;53.544;49.324;2023-01-25T01:22:28;5.55;;;3.37;;
67995;SDS011;54772;53.544;49.324;2023-01-25T01:25:14;6.07;;;3.83;;
67995;SDS011;54772;53.544;49.324;2023-01-25T01:28:01;5.75;;;3.00;;
67995;SDS011;54772;53.544;49.324;2023-01-25T01:30:47;6.12;;;4.07;;
67995;SDS011;54772;53.544;49.324;2023-01-25T01:33:35;5.35;;;3.60;;
67995;SDS011;54772;53.544;49.324;2023-01-25T01:36:22;6.50;;;4.03;;
67995;SDS011;54772;53.544;49.324;2023-01-25T01:39:11;5.22;;;3.20;;
67995;SDS011;54772;53.544;49.324;2023-01-25T01:41:58;7.20;;;3.85;;
67995;SDS011;54772;53.544;49.324;2023-01-25T01:44:50;5.30;;;3.28;;
67995;SDS011;54772;53.544;49.324;2023-01-25T01:47:39;7.55;;;3.80;;
67995;SDS011;54772;53.544;49.324;2023-01-25T01:50:30;8.80;;;4.60;;
67995;SDS011;54772;53.544;49.324;2023-01-25T01:56:05;5.87;;;3.87;;
67995;SDS011;54772;53.544;49.324;2023-01-25T01:58:54;5.93;;;3.30;;
67995;SDS011;54772;53.544;49.324;2023-01-25T02:01:41;8.02;;;3.78;;
67995;SDS011;54772;53.544;49.324;2023-01-25T02:04:29;6.18;;;3.50;;
67995;SDS011;54772;53.544;49.324;2023-01-25T02:07:20;5.65;;;3.90;;
67995;SDS011;54772;53.544;49.324;2023-01-25T02:10:15;6.20;;;3.90;;
67995;SDS011;54772;53.544;49.324;2023-01-25T02:13:03;6.35;;;3.90;;
67995;SDS011;54772;53.544;49.324;2023-01-25T02:15:50;7.12;;;3.62;;
67995;SDS011;54772;53.544;49.324;2023-01-25T02:18:37;6.45;;;4.18;;
67995;SDS011;54772;53.544;49.324;2023-01-25T02:21:24;6.47;;;3.95;;
67995;SDS011;54772;53.544;49.324;2023-01-25T02:24:12;5.97;;;3.85;;
67995;SDS011;54772;53.544;49.324;2023-01-25T02:27:12;7.05;;;3.65;;
67995;SDS011;54772;53.544;49.324;2023-01-25T02:29:59;7.12;;;4.15;;
67995;SDS011;54772;53.544;49.324;2023-01-25T02:32:47;7.50;;;3.58;;
67995;SDS011;54772;53.544;49.324;2023-01-25T02:35:40;5.72;;;3.95;;
67995;SDS011;54772;53.544;49.324;2023-01-25T02:38:28;5.10;;;3.47;;
67995;SDS011;54772;53.544;49.324;2023-01-25T02:44:22;5.65;;;3.35;;
67995;SDS011;54772;53.544;49.324;2023-01-25T02:47:11;5.85;;;3.85;;
67995;SDS011;54772;53.544;49.324;2023-01-25T02:49:57;6.00;;;3.65;;
67995;SDS011;54772;53.544;49.324;2023-01-25T02:52:44;6.78;;;3.60;;
67995;SDS011;54772;53.544;49.324;2023-01-25T02:55:31;5.85;;;3.85;;
67995;SDS011;54772;53.544;49.324;2023-01-25T02:58:18;7.18;;;3.60;;
67995;SDS011;54772;53.544;49.324;2023-01-25T03:01:04;5.75;;;3.67;;
67995;SDS011;54772;53.544;49.324;2023-01-25T03:03:51;5.85;;;3.55;;
67995;SDS011;54772;53.544;49.324;2023-01-25T03:06:38;5.47;;;3.60;;
67995;SDS011;54772;53.544;49.324;2023-01-25T03:09:25;7.20;;;3.90;;
67995;SDS011;54772;53.544;49.324;2023-01-25T03:12:12;5.57;;;3.58;;
67995;SDS011;54772;53.544;49.324;2023-01-25T03:15:00;7.28;;;4.05;;
67995;SDS011;54772;53.544;49.324;2023-01-25T03:17:48;6.95;;;3.92;;
67995;SDS011;54772;53.544;49.324;2023-01-25T03:23:22;1.73;;;1.40;;
67995;SDS011;54772;53.544;49.324;2023-01-25T03:26:10;1.10;;;0.70;;
67995;SDS011;54772;53.544;49.324;2023-01-25T03:29:00;3.92;;;2.00;;
67995;SDS011;54772;53.544;49.324;2023-01-25T03:31:47;6.97;;;4.20;;
67995;SDS011;54772;53.544;49.324;2023-01-25T03:34:34;6.53;;;3.80;;
67995;SDS011;54772;53.544;49.324;2023-01-25T03:37:21;6.53;;;3.65;;
67995;SDS011;54772;53.544;49.324;2023-01-25T03:40:08;2.08;;;1.15;;
67995;SDS011;54772;53.544;49.324;2023-01-25T03:42:56;2.75;;;1.50;;
67995;SDS011;54772;53.544;49.324;2023-01-25T03:45:43;0.93;;;0.85;;
67995;SDS011;54772;53.544;49.324;2023-01-25T03:48:30;0.40;;;0.40;;
67995;SDS011;54772;53.544;49.324;2023-01-25T03:51:18;7.28;;;3.47;;
67995;SDS011;54772;53.544;49.324;2023-01-25T03:54:04;5.37;;;3.03;;
67995;SDS011;54772;53.544;49.324;2023-01-25T03:56:53;6.50;;;3.40;;
67995;SDS011;54772;53.544;49.324;2023-01-25T03:59:39;6.32;;;3.17;;
67995;SDS011;54772;53.544;49.324;2023-01-25T04:02:26;4.45;;;3.33;;
67995;SDS011;54772;53.544;49.324;2023-01-25T04:05:13;5.30;;;2.97;;
67995;SDS011;54772;53.544;49.324;2023-01-25T04:08:00;6.72;;;3.58;;
67995;SDS011;54772;53.544;49.324;2023-01-25T04:10:50;6.03;;;3.45;;
67995;SDS011;54772;53.544;49.324;2023-01-25T04:13:38;5.70;;;3.40;;
67995;SDS011;54772;53.544;49.324;2023-01-25T04:16:26;6.22;;;3.78;;
67995;SDS011;54772;53.544;49.324;2023-01-25T04:19:15;6.82;;;3.70;;
67995;SDS011;54772;53.544;49.324;2023-01-25T04:22:02;8.00;;;3.70;;
67995;SDS011;54772;53.544;49.324;2023-01-25T04:24:49;5.97;;;3.83;;
67995;SDS011;54772;53.544;49.324;2023-01-25T04:27:36;6.87;;;3.92;;
67995;SDS011;54772;53.544;49.324;2023-01-25T04:30:23;6.65;;;3.70;;
67995;SDS011;54772;53.544;49.324;2023-01-25T04:33:10;4.47;;;2.78;;
67995;SDS011;54772;53.544;49.324;2023-01-25T04:35:57;6.68;;;3.30;;
67995;SDS011;54772;53.544;49.324;2023-01-25T04:41:30;4.82;;;3.03;;
67995;SDS011;54772;53.544;49.324;2023-01-25T04:44:17;5.50;;;3.00;;
67995;SDS011;54772;53.544;49.324;2023-01-25T04:47:04;8.15;;;3.87;;
67995;SDS011;54772;53.544;49.324;2023-01-25T04:49:51;7.28;;;3.37;;
67995;SDS011;54772;53.544;49.324;2023-01-25T04:55:25;4.33;;;3.03;;
67995;SDS011;54772;53.544;49.324;2023-01-25T04:58:12;6.25;;;4.00;;
67995;SDS011;54772;53.544;49.324;2023-01-25T05:03:47;8.93;;;4.10;;
67995;SDS011;54772;53.544;49.324;2023-01-25T05:06:34;6.12;;;3.75;;
67995;SDS011;54772;53.544;49.324;2023-01-25T05:09:21;5.68;;;3.72;;
67995;SDS011;54772;53.544;49.324;2023-01-25T05:12:08;7.35;;;4.03;;
67995;SDS011;54772;53.544;49.324;2023-01-25T05:14:59;7.25;;;3.83;;
67995;SDS011;54772;53.544;49.324;2023-01-25T05:17:46;6.87;;;4.00;;
67995;SDS011;54772;53.544;49.324;2023-01-25T05:20:34;5.62;;;3.45;;
67995;SDS011;54772;53.544;49.324;2023-01-25T05:23:21;5.32;;;3.50;;
67995;SDS011;54772;53.544;49.324;2023-01-25T05:26:08;5.90;;;3.67;;
67995;SDS011;54772;53.544;49.324;2023-01-25T05:29:13;8.23;;;3.65;;
67995;SDS011;54772;53.544;49.324;2023-01-25T05:34:47;6.53;;;3.55;;
67995;SDS011;54772;53.544;49.324;2023-01-25T05:37:34;7.07;;;3.78;;
67995;SDS011;54772;53.544;49.324;2023-01-25T05:40:21;5.47;;;3.33;;
67995;SDS011;54772;53.544;49.324;2023-01-25T05:43:09;6.50;;;4.20;;
67995;SDS011;54772;53.544;49.324;2023-01-25T05:45:57;9.00;;;4.90;;
67995;SDS011;54772;53.544;49.324;2023-01-25T05:48:46;7.60;;;3.60;;
67995;SDS011;54772;53.544;49.324;2023-01-25T05:51:33;6.10;;;3.72;;
67995;SDS011;54772;53.544;49.324;2023-01-25T05:54:23;7.05;;;3.70;;
67995;SDS011;54772;53.544;49.324;2023-01-25T05:57:12;6.53;;;3.97;;
67995;SDS011;54772;53.544;49.324;2023-01-25T05:59:59;6.30;;;4.00;;
67995;SDS011;54772;53.544;49.324;2023-01-25T06:02:46;7.43;;;3.70;;
67995;SDS011;54772;53.544;49.324;2023-01-25T06:05:33;6.47;;;3.70;;
67995;SDS011;54772;53.544;49.324;2023-01-25T06:08:19;6.32;;;3.70;;
67995;SDS011;54772;53.544;49.324;2023-01-25T06:11:07;6.32;;;3.83;;
67995;SDS011;54772;53.544;49.324;2023-01-25T06:13:56;6.45;;;3.65;;
67995;SDS011;54772;53.544;49.324;2023-01-25T06:16:43;5.90;;;3.85;;
67995;SDS011;54772;53.544;49.324;2023-01-25T06:19:32;6.28;;;3.80;;
67995;SDS011;54772;53.544;49.324;2023-01-25T06:22:20;7.35;;;3.60;;
67995;SDS011;54772;53.544;49.324;2023-01-25T06:25:07;7.15;;;3.92;;
67995;SDS011;54772;53.544;49.324;2023-01-25T06:27:54;5.68;;;3.70;;
67995;SDS011;54772;53.544;49.324;2023-01-25T06:30:41;6.10;;;3.47;;
67995;SDS011;54772;53.544;49.324;2023-01-25T06:33:27;6.65;;;3.70;;
67995;SDS011;54772;53.544;49.324;2023-01-25T06:36:15;6.10;;;3.70;;
67995;SDS011;54772;53.544;49.324;2023-01-25T06:39:03;6.03;;;3.90;;
67995;SDS011;54772;53.544;49.324;2023-01-25T06:41:50;6.40;;;3.72;;
67995;SDS011;54772;53.544;49.324;2023-01-25T06:44:37;5.35;;;3.60;;
67995;SDS011;54772;53.544;49.324;2023-01-25T06:47:24;7.07;;;3.47;;
67995;SDS011;54772;53.544;49.324;2023-01-25T06:50:11;5.87;;;3.62;;
67995;SDS011;54772;53.544;49.324;2023-01-25T06:52:57;5.87;;;3.45;;
67995;SDS011;54772;53.544;49.324;2023-01-25T06:55:44;6.57;;;4.22;;
67995;SDS011;54772;53.544;49.324;2023-01-25T06:58:31;5.43;;;3.47;;
67995;SDS011;54772;53.544;49.324;2023-01-25T07:01:19;6.87;;;3.83;;
67995;SDS011;54772;53.544;49.324;2023-01-25T07:04:10;8.77;;;3.92;;
67995;SDS011;54772;53.544;49.324;2023-01-25T07:06:58;7.87;;;3.92;;
67995;SDS011;54772;53.544;49.324;2023-01-25T07:09:45;8.00;;;3.60;;
67995;SDS011;54772;53.544;49.324;2023-01-25T07:12:31;6.20;;;3.50;;
67995;SDS011;54772;53.544;49.324;2023-01-25T07:15:18;5.10;;;3.55;;
67995;SDS011;54772;53.544;49.324;2023-01-25T07:18:05;5.87;;;3.17;;
67995;SDS011;54772;53.544;49.324;2023-01-25T07:20:51;5.50;;;3.15;;
67995;SDS011;54772;53.544;49.324;2023-01-25T07:23:38;5.40;;;3.60;;
67995;SDS011;54772;53.544;49.324;2023-01-25T07:26:25;6.50;;;4.45;;
67995;SDS011;54772;53.544;49.324;2023-01-25T07:31:59;8.32;;;4.60;;
67995;SDS011;54772;53.544;49.324;2023-01-25T07:34:45;9.38;;;5.12;;
67995;SDS011;54772;53.544;49.324;2023-01-25T07:37:32;7.65;;;4.37;;
67995;SDS011;54772;53.544;49.324;2023-01-25T07:40:19;8.45;;;4.70;;
67995;SDS011;54772;53.544;49.324;2023-01-25T07:43:09;6.87;;;4.50;;
67995;SDS011;54772;53.544;49.324;2023-01-25T07:46:03;8.95;;;4.95;;
67995;SDS011;54772;53.544;49.324;2023-01-25T07:48:51;9.05;;;5.25;;
67995;SDS011;54772;53.544;49.324;2023-01-25T07:51:38;5.97;;;3.75;;
67995;SDS011;54772;53.544;49.324;2023-01-25T07:54:25;7.82;;;4.05;;
67995;SDS011;54772;53.544;49.324;2023-01-25T07:57:12;6.32;;;4.18;;
67995;SDS011;54772;53.544;49.324;2023-01-25T07:59:58;7.75;;;4.65;;
67995;SDS011;54772;53.544;49.324;2023-01-25T08:02:50;7.43;;;4.50;;
67995;SDS011;54772;53.544;49.324;2023-01-25T08:05:37;9.88;;;5.00;;
67995;SDS011;54772;53.544;49.324;2023-01-25T08:08:30;7.43;;;5.05;;
67995;SDS011;54772;53.544;49.324;2023-01-25T08:11:20;9.00;;;5.25;;
67995;SDS011;54772;53.544;49.324;2023-01-25T08:14:08;8.95;;;5.50;;
67995;SDS011;54772;53.544;49.324;2023-01-25T08:16:55;9.07;;;5.82;;
67995;SDS011;54772;53.544;49.324;2023-01-25T08:19:42;7.45;;;4.50;;
67995;SDS011;54772;53.544;49.324;2023-01-25T08:22:29;7.20;;;4.55;;
67995;SDS011;54772;53.544;49.324;2023-01-25T08:25:15;6.28;;;4.22;;
67995;SDS011;54772;53.544;49.324;2023-01-25T08:30:49;8.93;;;5.10;;
67995;SDS011;54772;53.544;49.324;2023-01-25T08:33:36;6.95;;;4.25;;
67995;SDS011;54772;53.544;49.324;2023-01-25T08:36:22;6.82;;;4.28;;
67995;SDS011;54772;53.544;49.324;2023-01-25T08:39:10;7.35;;;4.20;;
67995;SDS011;54772;53.544;49.324;2023-01-25T08:41:57;6.30;;;4.50;;
67995;SDS011;54772;53.544;49.324;2023-01-25T08:44:45;7.68;;;4.53;;
67995;SDS011;54772;53.544;49.324;2023-01-25T08:50:18;7.32;;;3.87;;
67995;SDS011;54772;53.544;49.324;2023-01-25T08:53:05;9.15;;;3.72;;
67995;SDS011;54772;53.544;49.324;2023-01-25T08:55:52;7.47;;;4.45;;
67995;SDS011;54772;53.544;49.324;2023-01-25T08:58:40;7.22;;;4.22;;
67995;SDS011;54772;53.544;49.324;2023-01-25T09:01:28;6.05;;;4.07;;
67995;SDS011;54772;53.544;49.324;2023-01-25T09:04:15;5.03;;;3.08;;
67995;SDS011;54772;53.544;49.324;2023-01-25T09:09:48;4.80;;;3.22;;
67995;SDS011;54772;53.544;49.324;2023-01-25T09:12:34;6.70;;;4.22;;
67995;SDS011;54772;53.544;49.324;2023-01-25T09:15:21;7.80;;;3.65;;
67995;SDS011;54772;53.544;49.324;2023-01-25T09:18:08;5.65;;;3.45;;
67995;SDS011;54772;53.544;49.324;2023-01-25T09:20:56;7.25;;;3.95;;
67995;SDS011;54772;53.544;49.324;2023-01-25T09:23:43;5.90;;;3.85;;
67995;SDS011;54772;53.544;49.324;2023-01-25T09:26:35;5.70;;;3.40;;
67995;SDS011;54772;53.544;49.324;2023-01-25T09:29:23;5.70;;;3.20;;
67995;SDS011;54772;53.544;49.324;2023-01-25T09:32:10;6.57;;;3.87;;
67995;SDS011;54772;53.544;49.324;2023-01-25T09:34:58;5.85;;;3.70;;
67995;SDS011;54772;53.544;49.324;2023-01-25T09:37:48;5.22;;;3.12;;
67995;SDS011;54772;53.544;49.324;2023-01-25T09:40:37;6.20;;;3.92;;
67995;SDS011;54772;53.544;49.324;2023-01-25T09:52:44;5.32;;;2.80;;
67995;SDS011;54772;53.544;49.324;2023-01-25T09:55:34;5.70;;;3.33;;
67995;SDS011;54772;53.544;49.324;2023-01-25T09:58:25;6.12;;;3.35;;
67995;SDS011;54772;53.544;49.324;2023-01-25T10:04:26;7.60;;;3.53;;
67995;SDS011;54772;53.544;49.324;2023-01-25T10:10:44;6.10;;;3.60;;
67995;SDS011;54772;53.544;49.324;2023-01-25T10:13:32;7.05;;;3.72;;
67995;SDS011;54772;53.544;49.324;2023-01-25T10:16:22;5.80;;;3.35;;
67995;SDS011;54772;53.544;49.324;2023-01-25T10:19:18;7.10;;;3.92;;
67995;SDS011;54772;53.544;49.324;2023-01-25T10:22:31;5.45;;;3.53;;
67995;SDS011;54772;53.544;49.324;2023-01-25T10:26:08;5.72;;;3.60;;
67995;SDS011;54772;53.544;49.324;2023-01-25T10:28:48;5.55;;;3.53;;
67995;SDS011;54772;53.544;49.324;2023-01-25T10:31:41;6.85;;;3.45;;
67995;SDS011;54772;53.544;49.324;2023-01-25T10:34:49;6.35;;;3.70;;
67995;SDS011;54772;53.544;49.324;2023-01-25T10:37:35;6.87;;;4.10;;
67995;SDS011;54772;53.544;49.324;2023-01-25T10:40:24;6.90;;;3.37;;
67995;SDS011;54772;53.544;49.324;2023-01-25T10:43:16;7.45;;;4.12;;
67995;SDS011;54772;53.544;49.324;2023-01-25T10:46:38;7.93;;;4.37;;
67995;SDS011;54772;53.544;49.324;2023-01-25T10:52:29;7.45;;;3.30;;
67995;SDS011;54772;53.544;49.324;2023-01-25T10:55:19;5.90;;;3.35;;
67995;SDS011;54772;53.544;49.324;2023-01-25T10:58:27;6.35;;;3.90;;
67995;SDS011;54772;53.544;49.324;2023-01-25T11:01:27;7.43;;;3.90;;
67995;SDS011;54772;53.544;49.324;2023-01-25T11:07:27;4.85;;;3.17;;
67995;SDS011;54772;53.544;49.324;2023-01-25T11:10:29;4.65;;;3.05;;
67995;SDS011;54772;53.544;49.324;2023-01-25T11:13:24;5.85;;;3.72;;
67995;SDS011;54772;53.544;49.324;2023-01-25T11:19:09;5.85;;;3.20;;
67995;SDS011;54772;53.544;49.324;2023-01-25T11:28:13;5.00;;;3.35;;
67995;SDS011;54772;53.544;49.324;2023-01-25T11:31:16;6.20;;;3.58;;
67995;SDS011;54772;53.544;49.324;2023-01-25T11:34:07;5.95;;;3.78;;
67995;SDS011;54772;53.544;49.324;2023-01-25T11:37:06;6.12;;;3.75;;
67995;SDS011;54772;53.544;49.324;2023-01-25T11:44:01;4.60;;;3.28;;
67995;SDS011;54772;53.544;49.324;2023-01-25T11:49:43;7.57;;;3.80;;
67995;SDS011;54772;53.544;49.324;2023-01-25T11:55:45;5.97;;;3.35;;
67995;SDS011;54772;53.544;49.324;2023-01-25T11:58:48;4.80;;;3.20;;
67995;SDS011;54772;53.544;49.324;2023-01-25T12:08:43;4.57;;;3.05;;
67995;SDS011;54772;53.544;49.324;2023-01-25T12:11:42;5.55;;;3.22;;
67995;SDS011;54772;53.544;49.324;2023-01-25T12:33:27;5.05;;;3.15;;
67995;SDS011;54772;53.544;49.324;2023-01-25T12:36:42;5.93;;;3.35;;
67995;SDS011;54772;53.544;49.324;2023-01-25T12:39:36;5.55;;;3.83;;
67995;SDS011;54772;53.544;49.324;2023-01-25T12:42:43;5.37;;;3.40;;
67995;SDS011;54772;53.544;49.324;2023-01-25T12:45:34;7.00;;;3.60;;
67995;SDS011;54772;53.544;49.324;2023-01-25T12:48:31;5.68;;;3.40;;
67995;SDS011;54772;53.544;49.324;2023-01-25T12:51:21;6.70;;;4.10;;
67995;SDS011;54772;53.544;49.324;2023-01-25T12:54:12;5.43;;;3.60;;
67995;SDS011;54772;53.544;49.324;2023-01-25T12:57:20;7.35;;;4.07;;
67995;SDS011;54772;53.544;49.324;2023-01-25T13:00:21;5.10;;;3.35;;
67995;SDS011;54772;53.544;49.324;2023-01-25T13:09:33;7.12;;;4.07;;
67995;SDS011;54772;53.544;49.324;2023-01-25T13:12:53;7.00;;;4.22;;
67995;SDS011;54772;53.544;49.324;2023-01-25T13:15:40;6.40;;;4.32;;
67995;SDS011;54772;53.544;49.324;2023-01-25T13:27:24;7.10;;;4.50;;
67995;SDS011;54772;53.544;49.324;2023-01-25T13:33:32;7.30;;;4.40;;
67995;SDS011;54772;53.544;49.324;2023-01-25T13:36:36;6.22;;;3.67;;
67995;SDS011;54772;53.544;49.324;2023-01-25T13:42:23;7.80;;;4.65;;
67995;SDS011;54772;53.544;49.324;2023-01-25T13:45:17;7.62;;;4.40;;
67995;SDS011;54772;53.544;49.324;2023-01-25T13:50:59;8.10;;;4.85;;
67995;SDS011;54772;53.544;49.324;2023-01-25T13:53:55;8.20;;;4.53;;
67995;SDS011;54772;53.544;49.324;2023-01-25T13:56:43;9.05;;;5.10;;
67995;SDS011;54772;53.544;49.324;2023-01-25T14:02:19;7.00;;;3.67;;
67995;SDS011;54772;53.544;49.324;2023-01-25T14:05:44;6.70;;;3.75;;
67995;SDS011;54772;53.544;49.324;2023-01-25T14:08:21;6.87;;;3.78;;
67995;SDS011;54772;53.544;49.324;2023-01-25T14:11:09;7.40;;;4.25;;
67995;SDS011;54772;53.544;49.324;2023-01-25T14:17:03;5.87;;;3.42;;
67995;SDS011;54772;53.544;49.324;2023-01-25T14:19:52;6.85;;;3.72;;
67995;SDS011;54772;53.544;49.324;2023-01-25T14:22:40;6.95;;;3.97;;
67995;SDS011;54772;53.544;49.324;2023-01-25T14:25:33;6.15;;;3.90;;
67995;SDS011;54772;53.544;49.324;2023-01-25T14:28:20;8.82;;;4.90;;
67995;SDS011;54772;53.544;49.324;2023-01-25T14:31:12;9.20;;;4.57;;
67995;SDS011;54772;53.544;49.324;2023-01-25T14:34:05;10.20;;;4.60;;
67995;SDS011;54772;53.544;49.324;2023-01-25T14:37:06;8.80;;;5.05;;
67995;SDS011;54772;53.544;49.324;2023-01-25T14:40:09;8.82;;;4.57;;
67995;SDS011;54772;53.544;49.324;2023-01-25T14:42:56;7.53;;;4.62;;
67995;SDS011;54772;53.544;49.324;2023-01-25T14:51:28;10.98;;;5.15;;
67995;SDS011;54772;53.544;49.324;2023-01-25T14:54:16;8.48;;;5.07;;
67995;SDS011;54772;53.544;49.324;2023-01-25T14:57:05;7.50;;;5.10;;
67995;SDS011;54772;53.544;49.324;2023-01-25T14:59:52;7.10;;;4.45;;
67995;SDS011;54772;53.544;49.324;2023-01-25T15:02:43;7.68;;;4.97;;
67995;SDS011;54772;53.544;49.324;2023-01-25T15:05:34;8.45;;;4.43;;
67995;SDS011;54772;53.544;49.324;2023-01-25T15:08:35;8.02;;;4.72;;
67995;SDS011;54772;53.544;49.324;2023-01-25T15:11:30;8.27;;;4.47;;
67995;SDS011;54772;53.544;49.324;2023-01-25T15:14:30;7.22;;;4.43;;
67995;SDS011;54772;53.544;49.324;2023-01-25T15:17:37;8.23;;;4.57;;
67995;SDS011;54772;53.544;49.324;2023-01-25T15:26:11;9.73;;;4.93;;
67995;SDS011;54772;53.544;49.324;2023-01-25T15:29:00;6.68;;;4.40;;
67995;SDS011;54772;53.544;49.324;2023-01-25T15:31:49;9.63;;;5.20;;
67995;SDS011;54772;53.544;49.324;2023-01-25T15:34:36;6.87;;;4.05;;
67995;SDS011;54772;53.544;49.324;2023-01-25T15:37:22;11.52;;;4.80;;
67995;SDS011;54772;53.544;49.324;2023-01-25T15:40:07;7.43;;;3.67;;
67995;SDS011;54772;53.544;49.324;2023-01-25T15:42:55;6.85;;;3.95;;
67995;SDS011;54772;53.544;49.324;2023-01-25T15:45:44;6.35;;;3.85;;
67995;SDS011;54772;53.544;49.324;2023-01-25T15:48:33;8.15;;;4.05;;
67995;SDS011;54772;53.544;49.324;2023-01-25T15:51:22;7.90;;;4.57;;
67995;SDS011;54772;53.544;49.324;2023-01-25T15:54:09;7.47;;;3.83;;
67995;SDS011;54772;53.544;49.324;2023-01-25T15:56:56;6.30;;;3.53;;
67995;SDS011;54772;53.544;49.324;2023-01-25T15:59:44;7.85;;;3.92;;
67995;SDS011;54772;53.544;49.324;2023-01-25T16:02:30;6.78;;;3.87;;
67995;SDS011;54772;53.544;49.324;2023-01-25T16:05:17;5.97;;;4.15;;
67995;SDS011;54772;53.544;49.324;2023-01-25T16:08:04;6.32;;;4.30;;
67995;SDS011;54772;53.544;49.324;2023-01-25T16:10:51;5.80;;;3.78;;
67995;SDS011;54772;53.544;49.324;2023-01-25T16:13:37;6.05;;;4.05;;
67995;SDS011;54772;53.544;49.324;2023-01-25T16:16:25;8.32;;;4.68;;
67995;SDS011;54772;53.544;49.324;2023-01-25T16:19:15;6.47;;;4.15;;
67995;SDS011;54772;53.544;49.324;2023-01-25T16:22:03;6.07;;;4.00;;
67995;SDS011;54772;53.544;49.324;2023-01-25T16:24:50;5.97;;;3.90;;
67995;SDS011;54772;53.544;49.324;2023-01-25T16:27:36;7.90;;;4.40;;
67995;SDS011;54772;53.544;49.324;2023-01-25T16:30:24;7.47;;;4.35;;
67995;SDS011;54772;53.544;49.324;2023-01-25T16:33:11;8.18;;;4.10;;
67995;SDS011;54772;53.544;49.324;2023-01-25T16:39:08;7.18;;;4.05;;
67995;SDS011;54772;53.544;49.324;2023-01-25T16:42:04;7.07;;;4.22;;
67995;SDS011;54772;53.544;49.324;2023-01-25T16:44:50;7.30;;;4.05;;
67995;SDS011;54772;53.544;49.324;2023-01-25T16:47:37;9.27;;;4.70;;
67995;SDS011;54772;53.544;49.324;2023-01-25T16:53:10;7.78;;;3.70;;
67995;SDS011;54772;53.544;49.324;2023-01-25T16:55:59;6.65;;;3.95;;
67995;SDS011;54772;53.544;49.324;2023-01-25T16:58:47;7.12;;;3.55;;
67995;SDS011;54772;53.544;49.324;2023-01-25T17:01:34;6.70;;;3.97;;
67995;SDS011;54772;53.544;49.324;2023-01-25T17:04:25;5.43;;;3.62;;
67995;SDS011;54772;53.544;49.324;2023-01-25T17:09:58;6.68;;;4.07;;
67995;SDS011;54772;53.544;49.324;2023-01-25T17:12:45;6.12;;;3.70;;
67995;SDS011;54772;53.544;49.324;2023-01-25T17:15:32;6.72;;;4.07;;
67995;SDS011;54772;53.544;49.324;2023-01-25T17:18:19;7.65;;;3.90;;
67995;SDS011;54772;53.544;49.324;2023-01-25T17:21:06;6.18;;;3.80;;
67995;SDS011;54772;53.544;49.324;2023-01-25T17:23:54;6.03;;;3.70;;
67995;SDS011;54772;53.544;49.324;2023-01-25T17:26:41;6.07;;;3.65;;
67995;SDS011;54772;53.544;49.324;2023-01-25T17:29:29;6.25;;;3.58;;
67995;SDS011;54772;53.544;49.324;2023-01-25T17:32:15;6.25;;;3.53;;
67995;SDS011;54772;53.544;49.324;2023-01-25T17:35:02;5.50;;;3.30;;
67995;SDS011;54772;53.544;49.324;2023-01-25T17:40:38;6.40;;;3.45;;
67995;SDS011;54772;53.544;49.324;2023-01-25T17:43:24;5.05;;;3.17;;
67995;SDS011;54772;53.544;49.324;2023-01-25T17:46:33;6.68;;;3.75;;
67995;SDS011;54772;53.544;49.324;2023-01-25T17:49:20;6.53;;;3.47;;
67995;SDS011;54772;53.544;49.324;2023-01-25T17:52:08;5.97;;;3.50;;
67995;SDS011;54772;53.544;49.324;2023-01-25T17:54:55;5.37;;;3.50;;
67995;SDS011;54772;53.544;49.324;2023-01-25T17:57:44;6.10;;;3.37;;
67995;SDS011;54772;53.544;49.324;2023-01-25T18:00:30;6.15;;;3.53;;
67995;SDS011;54772;53.544;49.324;2023-01-25T18:03:18;5.05;;;3.12;;
67995;SDS011;54772;53.544;49.324;2023-01-25T18:06:04;5.18;;;2.92;;
67995;SDS011;54772;53.544;49.324;2023-01-25T18:08:54;6.57;;;3.70;;
67995;SDS011;54772;53.544;49.324;2023-01-25T18:11:43;5.12;;;3.25;;
67995;SDS011;54772;53.544;49.324;2023-01-25T18:14:30;5.32;;;3.30;;
67995;SDS011;54772;53.544;49.324;2023-01-25T18:17:17;5.62;;;3.30;;
67995;SDS011;54772;53.544;49.324;2023-01-25T18:20:04;4.85;;;3.22;;
67995;SDS011;54772;53.544;49.324;2023-01-25T18:22:54;5.57;;;2.90;;
67995;SDS011;54772;53.544;49.324;2023-01-25T18:25:41;5.32;;;3.42;;
67995;SDS011;54772;53.544;49.324;2023-01-25T18:28:27;5.15;;;3.33;;
67995;SDS011;54772;53.544;49.324;2023-01-25T18:31:14;6.05;;;3.03;;
67995;SDS011;54772;53.544;49.324;2023-01-25T18:34:01;5.07;;;3.03;;
67995;SDS011;54772;53.544;49.324;2023-01-25T18:36:48;6.15;;;3.25;;
67995;SDS011;54772;53.544;49.324;2023-01-25T18:39:35;5.07;;;3.12;;
67995;SDS011;54772;53.544;49.324;2023-01-25T18:42:23;5.32;;;3.30;;
67995;SDS011;54772;53.544;49.324;2023-01-25T18:45:13;6.10;;;3.33;;
67995;SDS011;54772;53.544;49.324;2023-01-25T18:48:00;7.03;;;3.33;;
67995;SDS011;54772;53.544;49.324;2023-01-25T18:50:49;7.65;;;3.47;;
67995;SDS011;54772;53.544;49.324;2023-01-25T18:53:36;4.75;;;3.03;;
67995;SDS011;54772;53.544;49.324;2023-01-25T18:56:23;6.30;;;3.28;;
67995;SDS011;54772;53.544;49.324;2023-01-25T18:59:11;5.00;;;2.97;;
67995;SDS011;54772;53.544;49.324;2023-01-25T19:01:57;4.85;;;3.08;;
67995;SDS011;54772;53.544;49.324;2023-01-25T19:04:44;5.37;;;3.05;;
67995;SDS011;54772;53.544;49.324;2023-01-25T19:07:30;6.00;;;3.37;;
67995;SDS011;54772;53.544;49.324;2023-01-25T19:10:17;5.15;;;3.20;;
67995;SDS011;54772;53.544;49.324;2023-01-25T19:13:04;5.62;;;3.50;;
67995;SDS011;54772;53.544;49.324;2023-01-25T19:16:04;5.35;;;3.10;;
67995;SDS011;54772;53.544;49.324;2023-01-25T19:18:51;6.12;;;3.33;;
67995;SDS011;54772;53.544;49.324;2023-01-25T19:21:38;9.07;;;3.67;;
67995;SDS011;54772;53.544;49.324;2023-01-25T19:24:25;5.43;;;2.90;;
67995;SDS011;54772;53.544;49.324;2023-01-25T19:29:58;5.37;;;3.20;;